Airfield :
LOGIN :

Register | Disclaimer

   EN    FR    IT 

 










Legend :    VFR   Marginal VFR   IFR   Intensive IFR   Very Intensive IFR
Visi :
Ceiling :
>= 8 km
>= 3000ft
5 to 8 km
1000 to 3000 ft
1500m to 5 km
500 to 1000 ft
800 to 1500m
200 to 500 ft
< 800m
< 200 ft
Symbols :   Thunderstorms  Fog  Heavy snow  Heavy precipitations  Wind > 20 kt
SIGMETs :     Misc.  Thunderstorms  Icing  Turbulence  Mountain Waves  Volcanic Ashes






- Airport Elevation : 587 ft
- IATA code : XCR


LFOK - Chalons Vatry

CURRENT METAR :
  • 291100Z AUTO 23014KT 9999 -RA FEW032 SCT038 BKN072 12/10 Q1022 TEMPO 4000 SHRA BKN012TCU

EXPIRED METARs :
  • 291030Z AUTO 23014KT 9999 FEW012 SCT088 12/10 Q1022 TEMPO 4000 SHRA BKN012TCU
  • 291000Z AUTO 23015KT 9999 SCT013 SCT066 BKN080 12/10 Q1021 TEMPO 4000 SHRA BKN012TCU
  • 290930Z AUTO 24015KT 9999 BKN012 BKN064 12/10 Q1021 TEMPO 4000 SHRA BKN012TCU
  • 290900Z AUTO 23014KT 9999 FEW012 12/10 Q1021 TEMPO BKN010
  • 290830Z AUTO 23014KT CAVOK 11/09 Q1020 TEMPO BKN010

TAF TAF LFOK
Valid from the 29 at 06:00 until the 30 at 06:00 UTC


290500Z 2906/3006 24013KT 9999 BKN030
PROB40
TEMPO 2906/2911 BKN010
TEMPO 2911/2914 4000 SHRA BKN012TCU
TEMPO 3000/3006 OVC011



MET'MAP, your aeronautical weather chart ! - Copyright ORBIFLY December 2007 - Disclaimer

ORBIFLY MET'MAP TEAM :

Programming & Development : Alexandra Zaïnal
Concept & original design : Baudouin d'Aumeries
Assistance for programming : Marc-Olivier Méhu
Technical & hardware support : Manuel Goepfert

Contact : metmap@orbifly.com




SOURCES & CREDITS :

   NOAA